createdAt,value
2023-08-07T00:02:10.310Z,5.10
2023-08-07T00:04:37.463Z,5.70
2023-08-07T00:07:04.782Z,6.30
2023-08-07T00:09:32.387Z,5.40
2023-08-07T00:11:59.735Z,6.00
2023-08-07T00:14:26.885Z,5.00
2023-08-07T00:16:54.029Z,4.90
2023-08-07T00:19:21.387Z,6.80
2023-08-07T00:21:48.650Z,5.90
2023-08-07T00:24:15.903Z,5.10
2023-08-07T00:26:42.944Z,5.30
2023-08-07T00:29:10.108Z,6.30
2023-08-07T00:31:37.312Z,6.10
2023-08-07T00:34:05.528Z,5.20
2023-08-07T00:36:36.231Z,7.70
2023-08-07T00:39:07.297Z,6.10
2023-08-07T00:41:34.490Z,4.50
2023-08-07T00:44:02.129Z,5.60
2023-08-07T00:46:30.657Z,6.60
2023-08-07T00:48:58.348Z,5.60
2023-08-07T00:51:25.914Z,5.80
2023-08-07T00:53:54.548Z,5.10
2023-08-07T00:56:22.912Z,7.00
2023-08-07T00:58:51.626Z,5.30
2023-08-07T01:01:19.015Z,4.90
2023-08-07T01:03:46.834Z,5.10
2023-08-07T01:06:14.707Z,5.30
2023-08-07T01:08:42.311Z,4.70
2023-08-07T01:11:21.691Z,6.20
2023-08-07T01:13:58.420Z,5.20
2023-08-07T01:16:49.421Z,5.20
2023-08-07T01:19:26.678Z,5.20
2023-08-07T01:22:12.095Z,5.10
2023-08-07T01:24:42.079Z,5.40
2023-08-07T01:27:09.979Z,4.80
2023-08-07T01:30:14.937Z,4.70
2023-08-07T01:32:44.955Z,6.80
2023-08-07T01:35:15.906Z,6.40
2023-08-07T01:37:44.602Z,7.00
2023-08-07T01:40:13.736Z,5.00
2023-08-07T01:42:41.483Z,5.10
2023-08-07T01:45:09.589Z,6.90
2023-08-07T01:47:38.082Z,5.40
2023-08-07T01:50:07.778Z,5.30
2023-08-07T01:52:34.884Z,5.90
2023-08-07T01:55:02.905Z,5.30
2023-08-07T01:57:30.249Z,4.20
2023-08-07T01:59:57.710Z,6.50
2023-08-07T02:02:25.087Z,5.90
2023-08-07T02:04:52.427Z,6.50
2023-08-07T02:07:21.116Z,4.60
2023-08-07T02:09:51.028Z,6.10
2023-08-07T02:12:18.069Z,4.60
2023-08-07T02:14:46.144Z,4.90
2023-08-07T02:17:13.299Z,6.00
2023-08-07T02:19:40.544Z,5.50
2023-08-07T02:22:07.665Z,4.70
2023-08-07T02:24:34.734Z,6.60
2023-08-07T02:27:01.784Z,4.00
2023-08-07T02:29:28.902Z,5.60
2023-08-07T02:31:56.013Z,4.60
2023-08-07T02:34:23.307Z,4.80
2023-08-07T02:36:50.742Z,5.90
2023-08-07T02:39:20.432Z,6.00
2023-08-07T02:41:47.436Z,4.90
2023-08-07T02:44:15.169Z,6.50
2023-08-07T02:46:42.855Z,4.60
2023-08-07T02:49:09.983Z,4.70
2023-08-07T02:51:38.408Z,5.40
2023-08-07T02:54:05.518Z,5.70
2023-08-07T02:56:34.446Z,5.90
2023-08-07T02:59:03.004Z,4.30
2023-08-07T03:01:31.116Z,5.50
2023-08-07T03:03:58.257Z,5.40
2023-08-07T03:06:25.506Z,4.70
2023-08-07T03:08:52.777Z,5.70
2023-08-07T03:11:20.418Z,7.00
2023-08-07T03:13:48.184Z,5.50
2023-08-07T03:16:15.647Z,4.90
2023-08-07T03:18:42.928Z,5.20
2023-08-07T03:21:09.908Z,4.10
2023-08-07T03:23:39.853Z,5.60
2023-08-07T03:26:19.357Z,4.80
2023-08-07T03:28:52.237Z,4.30
2023-08-07T03:31:21.000Z,4.50
2023-08-07T03:33:50.385Z,4.40
2023-08-07T03:36:26.538Z,4.60
2023-08-07T03:38:53.678Z,4.90
2023-08-07T03:41:20.938Z,3.60
2023-08-07T03:43:49.139Z,3.80
2023-08-07T03:46:16.738Z,4.40
2023-08-07T03:48:43.770Z,5.10
2023-08-07T03:51:12.122Z,3.90
2023-08-07T03:53:45.278Z,4.70
2023-08-07T03:56:12.429Z,5.30
2023-08-07T03:58:40.202Z,4.50
2023-08-07T04:01:07.999Z,5.00
2023-08-07T04:03:35.141Z,4.20
2023-08-07T04:06:03.194Z,3.60
2023-08-07T04:08:30.339Z,4.90
2023-08-07T04:11:07.278Z,4.00
2023-08-07T04:13:35.033Z,4.60
2023-08-07T04:16:06.047Z,5.70
2023-08-07T04:18:34.896Z,6.20
2023-08-07T04:21:03.763Z,5.90
2023-08-07T04:23:32.945Z,5.20
2023-08-07T04:26:01.271Z,5.50
2023-08-07T04:28:31.476Z,5.00
2023-08-07T04:30:59.057Z,5.20
2023-08-07T04:33:26.362Z,4.50
2023-08-07T04:35:53.532Z,5.00
2023-08-07T04:38:21.225Z,5.90
2023-08-07T04:40:53.186Z,6.60
2023-08-07T04:43:21.957Z,5.10
2023-08-07T04:45:49.334Z,4.80
2023-08-07T04:48:18.625Z,4.50
2023-08-07T04:50:46.761Z,6.10
2023-08-07T04:53:13.942Z,3.80
2023-08-07T04:55:41.046Z,4.20
2023-08-07T04:58:08.254Z,5.10
2023-08-07T05:00:35.393Z,3.70
2023-08-07T05:03:02.975Z,5.10
2023-08-07T05:05:30.284Z,4.70
2023-08-07T05:07:59.541Z,4.60
2023-08-07T05:10:26.642Z,4.70
2023-08-07T05:12:56.625Z,4.40
2023-08-07T05:15:24.865Z,4.70
2023-08-07T05:17:53.066Z,4.30
2023-08-07T05:20:20.383Z,4.40
2023-08-07T05:22:48.275Z,5.10
2023-08-07T05:25:18.636Z,4.10
2023-08-07T05:27:48.721Z,4.80
2023-08-07T05:30:16.277Z,4.10
2023-08-07T05:32:43.545Z,5.70
2023-08-07T05:35:10.938Z,5.50
2023-08-07T05:37:38.074Z,4.50
2023-08-07T05:40:06.562Z,5.20
2023-08-07T05:42:33.630Z,4.60
2023-08-07T05:45:00.811Z,5.70
2023-08-07T05:47:27.851Z,5.80
2023-08-07T05:49:54.976Z,5.10
2023-08-07T05:52:22.195Z,4.00
2023-08-07T05:54:49.176Z,4.70
2023-08-07T05:57:16.438Z,5.60
2023-08-07T05:59:43.548Z,5.70
2023-08-07T06:02:14.813Z,4.20
2023-08-07T06:04:42.297Z,4.00
2023-08-07T06:07:09.622Z,4.70
2023-08-07T06:09:37.070Z,5.10
2023-08-07T06:12:04.416Z,6.00
2023-08-07T06:14:31.543Z,4.50
2023-08-07T06:17:03.128Z,5.50
2023-08-07T06:19:32.551Z,6.00
2023-08-07T06:22:01.031Z,5.60
2023-08-07T06:24:28.960Z,6.10
2023-08-07T06:26:56.104Z,5.30
2023-08-07T06:29:23.532Z,5.00
2023-08-07T06:31:50.588Z,5.10
2023-08-07T06:34:17.823Z,9.80
2023-08-07T06:36:44.903Z,3.90
2023-08-07T06:39:12.019Z,5.10
2023-08-07T06:41:39.178Z,5.80
2023-08-07T06:44:06.310Z,5.00
2023-08-07T06:46:33.666Z,4.90
2023-08-07T06:49:00.721Z,5.50
2023-08-07T06:51:28.028Z,6.50
2023-08-07T06:53:55.008Z,5.00
2023-08-07T06:56:22.442Z,5.80
2023-08-07T06:58:49.516Z,6.20
2023-08-07T07:01:17.065Z,4.80
2023-08-07T07:03:46.918Z,4.70
2023-08-07T07:06:14.521Z,5.40
2023-08-07T07:08:41.546Z,3.70
2023-08-07T07:11:09.612Z,6.30
2023-08-07T07:13:36.967Z,5.00
2023-08-07T07:16:04.033Z,5.00
2023-08-07T07:18:31.133Z,6.30
2023-08-07T07:21:01.704Z,5.00
2023-08-07T07:23:29.378Z,8.00
2023-08-07T07:25:56.787Z,6.20
2023-08-07T07:28:24.195Z,6.40
2023-08-07T07:30:51.637Z,6.40
2023-08-07T07:33:18.890Z,4.80
2023-08-07T07:35:46.113Z,7.30
2023-08-07T07:38:13.670Z,4.30
2023-08-07T07:40:40.860Z,5.80
2023-08-07T07:43:09.145Z,5.80
2023-08-07T07:45:37.627Z,4.80
2023-08-07T07:48:05.669Z,4.80
2023-08-07T07:50:34.416Z,6.70
2023-08-07T07:53:01.614Z,6.20
2023-08-07T07:55:28.680Z,5.30
2023-08-07T07:57:56.541Z,4.80
2023-08-07T08:00:28.133Z,7.60
2023-08-07T08:02:55.648Z,6.70
2023-08-07T08:05:23.124Z,6.30
2023-08-07T08:07:51.158Z,5.60
2023-08-07T08:10:19.649Z,4.90
2023-08-07T08:12:46.802Z,8.80
2023-08-07T08:15:16.065Z,5.90
2023-08-07T08:17:43.324Z,8.10
2023-08-07T08:20:11.490Z,9.80
2023-08-07T08:22:38.985Z,11.10
2023-08-07T08:25:07.918Z,9.90
2023-08-07T08:27:35.098Z,9.70
2023-08-07T08:30:04.989Z,9.40
2023-08-07T08:32:34.693Z,10.30
2023-08-07T08:35:02.936Z,10.80
2023-08-07T08:37:30.636Z,11.20
2023-08-07T08:39:57.794Z,9.00
2023-08-07T08:42:26.535Z,8.80
2023-08-07T08:44:56.459Z,9.40
2023-08-07T08:47:27.058Z,9.00
2023-08-07T08:50:06.130Z,8.10
2023-08-07T08:52:37.338Z,8.00
2023-08-07T08:55:08.721Z,10.50
2023-08-07T08:57:41.809Z,9.20
2023-08-07T09:00:20.990Z,7.50
2023-08-07T09:02:53.594Z,8.70
2023-08-07T09:05:24.208Z,7.60
2023-08-07T09:07:52.110Z,9.60
2023-08-07T09:10:20.114Z,9.80
2023-08-07T09:12:59.666Z,8.80
2023-08-07T09:15:31.550Z,8.20
2023-08-07T09:18:00.921Z,9.50
2023-08-07T09:20:29.872Z,9.20
2023-08-07T09:22:58.930Z,8.50
2023-08-07T09:25:34.675Z,8.80
2023-08-07T09:28:06.117Z,9.80
2023-08-07T09:30:39.686Z,9.80
2023-08-07T09:33:08.491Z,8.10
2023-08-07T09:35:36.066Z,7.00
2023-08-07T09:38:03.515Z,10.60
2023-08-07T09:40:34.697Z,13.40
2023-08-07T09:43:04.463Z,9.50
2023-08-07T09:45:33.128Z,8.90
2023-08-07T09:48:04.795Z,10.20
2023-08-07T09:50:34.524Z,9.40
2023-08-07T09:53:01.935Z,10.50
2023-08-07T09:55:31.098Z,8.60
2023-08-07T09:57:58.483Z,9.10
2023-08-07T10:00:28.354Z,14.00
2023-08-07T10:02:57.017Z,8.20
2023-08-07T10:05:24.487Z,11.70
2023-08-07T10:07:52.855Z,12.20
2023-08-07T10:10:22.077Z,11.20
2023-08-07T10:12:50.584Z,10.70
2023-08-07T10:15:17.903Z,9.40
2023-08-07T10:17:45.326Z,8.50
2023-08-07T10:20:14.361Z,8.60
2023-08-07T10:22:43.169Z,9.20
2023-08-07T10:25:10.683Z,9.10
2023-08-07T10:27:45.196Z,8.50
2023-08-07T10:30:16.758Z,15.80
2023-08-07T10:32:45.903Z,10.30
2023-08-07T10:35:26.934Z,6.70
2023-08-07T10:37:55.740Z,10.20
2023-08-07T10:40:24.627Z,9.40
2023-08-07T10:43:03.141Z,9.90
2023-08-07T10:45:31.810Z,15.00
2023-08-07T10:47:59.832Z,10.80
2023-08-07T10:50:34.082Z,10.10
2023-08-07T10:53:03.119Z,12.00
2023-08-07T10:55:45.812Z,10.30
2023-08-07T10:58:32.526Z,10.20
2023-08-07T11:01:28.301Z,9.00
2023-08-07T11:03:57.630Z,9.60
2023-08-07T11:06:33.531Z,13.30
2023-08-07T11:09:02.260Z,9.60
2023-08-07T11:11:29.908Z,12.10
2023-08-07T11:13:57.072Z,13.30
2023-08-07T11:16:24.742Z,14.60
2023-08-07T11:18:52.105Z,13.30
2023-08-07T11:21:21.140Z,9.00
2023-08-07T11:23:50.114Z,15.30
2023-08-07T11:26:31.870Z,12.20
2023-08-07T11:29:01.020Z,11.90
2023-08-07T11:31:32.269Z,8.80
2023-08-07T11:34:01.336Z,10.70
2023-08-07T11:36:28.592Z,10.10
2023-08-07T11:38:55.960Z,9.00
2023-08-07T11:41:23.842Z,9.30
2023-08-07T11:43:53.722Z,9.30
2023-08-07T11:46:24.594Z,8.10
2023-08-07T11:48:56.102Z,7.80
2023-08-07T11:51:23.680Z,7.80
2023-08-07T11:53:50.927Z,10.20
2023-08-07T11:56:19.356Z,8.20
2023-08-07T11:58:49.549Z,11.00
2023-08-07T12:01:22.051Z,9.40
2023-08-07T12:04:11.123Z,10.00
2023-08-07T12:06:41.603Z,9.90
2023-08-07T12:09:14.094Z,7.60
2023-08-07T12:11:41.701Z,7.70
2023-08-07T12:14:08.745Z,7.10
2023-08-07T12:16:36.585Z,7.10
2023-08-07T12:19:05.371Z,10.60
2023-08-07T12:21:34.742Z,6.50
2023-08-07T12:24:02.020Z,9.30
2023-08-07T12:26:29.145Z,8.90
2023-08-07T12:28:57.768Z,9.00
2023-08-07T12:31:24.776Z,6.90
2023-08-07T12:33:53.245Z,6.40
2023-08-07T12:36:21.241Z,9.90
2023-08-07T12:38:50.368Z,8.80
2023-08-07T12:43:47.991Z,8.10
2023-08-07T12:48:52.627Z,7.70
2023-08-07T12:51:21.046Z,6.80
2023-08-07T12:53:48.932Z,12.10
2023-08-07T12:56:16.132Z,7.80
2023-08-07T12:58:53.636Z,13.50
2023-08-07T13:01:20.831Z,9.10
2023-08-07T13:03:48.176Z,7.80
2023-08-07T13:06:15.282Z,10.40
2023-08-07T13:08:44.629Z,7.30
2023-08-07T13:11:11.835Z,9.80
2023-08-07T13:13:39.921Z,10.40
2023-08-07T13:16:07.264Z,8.80
2023-08-07T13:18:34.424Z,7.50
2023-08-07T13:21:01.571Z,7.40
2023-08-07T13:23:29.126Z,8.20
2023-08-07T13:25:57.804Z,7.70
2023-08-07T13:28:24.875Z,10.40
2023-08-07T13:30:53.107Z,10.90
2023-08-07T13:33:23.035Z,9.70
2023-08-07T13:35:50.542Z,5.60
2023-08-07T13:38:19.952Z,6.10
2023-08-07T13:40:47.274Z,10.00
2023-08-07T13:43:14.547Z,5.90
2023-08-07T13:45:41.560Z,7.70
2023-08-07T13:48:10.893Z,8.10
2023-08-07T13:50:39.599Z,8.90
2023-08-07T13:53:14.188Z,8.60
2023-08-07T13:55:42.899Z,7.70
2023-08-07T13:58:11.205Z,8.80
2023-08-07T14:00:38.659Z,9.00
2023-08-07T14:03:05.808Z,8.60
2023-08-07T14:05:32.893Z,6.00
2023-08-07T14:07:59.941Z,8.50
2023-08-07T14:10:27.160Z,7.60
2023-08-07T14:12:54.210Z,7.30
2023-08-07T14:15:21.308Z,7.00
2023-08-07T14:17:48.416Z,6.60
2023-08-07T14:20:15.590Z,8.90
2023-08-07T14:22:43.103Z,10.60
2023-08-07T14:25:10.344Z,5.30
2023-08-07T14:27:37.323Z,9.00
2023-08-07T14:30:04.703Z,5.10
2023-08-07T14:32:31.868Z,7.70
2023-08-07T14:34:59.050Z,7.10
2023-08-07T14:37:26.310Z,6.60
2023-08-07T14:39:53.911Z,7.70
2023-08-07T14:42:21.100Z,6.90
2023-08-07T14:44:48.244Z,9.20
2023-08-07T14:47:15.273Z,9.20
2023-08-07T14:49:42.308Z,6.40
2023-08-07T14:52:09.248Z,11.00
2023-08-07T14:54:36.398Z,8.00
2023-08-07T14:57:03.785Z,9.00
2023-08-07T14:59:30.803Z,7.30
2023-08-07T15:01:58.108Z,7.70
2023-08-07T15:04:25.335Z,5.60
2023-08-07T15:06:52.578Z,7.40
2023-08-07T15:09:20.775Z,8.80
2023-08-07T15:11:48.608Z,7.20
2023-08-07T15:14:15.852Z,7.90
2023-08-07T15:16:43.350Z,10.60
2023-08-07T15:19:10.495Z,8.00
2023-08-07T15:21:37.480Z,7.00
2023-08-07T15:24:05.035Z,6.30
2023-08-07T15:26:32.744Z,7.30
2023-08-07T15:29:01.574Z,9.50
2023-08-07T15:31:28.740Z,6.80
2023-08-07T15:33:57.511Z,5.00
2023-08-07T15:36:24.475Z,5.60
2023-08-07T15:38:52.333Z,7.80
2023-08-07T15:41:22.236Z,7.20
2023-08-07T15:43:51.022Z,6.10
2023-08-07T15:46:18.929Z,11.00
2023-08-07T15:48:46.169Z,7.60
2023-08-07T15:51:13.243Z,8.60
2023-08-07T15:53:40.400Z,9.20
2023-08-07T15:56:07.373Z,6.30
2023-08-07T15:58:34.533Z,7.30
2023-08-07T16:01:01.546Z,8.90
2023-08-07T16:03:28.885Z,8.10
2023-08-07T16:05:56.044Z,8.50
2023-08-07T16:08:24.442Z,6.20
2023-08-07T16:10:53.698Z,7.70
2023-08-07T16:13:21.709Z,7.40
2023-08-07T16:15:48.679Z,9.00
2023-08-07T16:18:17.528Z,9.10
2023-08-07T16:20:44.870Z,10.10
2023-08-07T16:23:12.135Z,8.20
2023-08-07T16:25:39.494Z,8.00
2023-08-07T16:28:07.075Z,6.10
2023-08-07T16:30:34.404Z,6.70
2023-08-07T16:33:01.930Z,8.90
2023-08-07T16:35:29.351Z,8.40
2023-08-07T16:37:56.824Z,9.60
2023-08-07T16:40:23.916Z,11.30
2023-08-07T16:42:51.552Z,9.40
2023-08-07T16:45:20.876Z,6.70
2023-08-07T16:47:48.459Z,8.60
2023-08-07T16:50:15.569Z,9.00
2023-08-07T16:52:42.733Z,10.60
2023-08-07T16:55:09.891Z,8.80
2023-08-07T16:57:37.250Z,9.20
2023-08-07T17:00:07.325Z,10.00
2023-08-07T17:02:35.718Z,8.20
2023-08-07T17:05:03.266Z,9.30
2023-08-07T17:07:30.289Z,9.00
2023-08-07T17:09:57.393Z,7.00
2023-08-07T17:12:24.953Z,11.80
2023-08-07T17:14:51.997Z,10.10
2023-08-07T17:17:19.173Z,12.40
2023-08-07T17:19:46.323Z,12.00
2023-08-07T17:22:13.766Z,14.50
2023-08-07T17:24:40.905Z,16.00
2023-08-07T17:27:08.028Z,17.90
2023-08-07T17:29:35.050Z,26.80
2023-08-07T17:32:04.626Z,38.20
2023-08-07T17:34:31.977Z,44.40
2023-08-07T17:37:00.850Z,51.30
2023-08-07T17:39:29.366Z,51.40
2023-08-07T17:41:57.202Z,54.20
2023-08-07T17:44:26.812Z,49.80
2023-08-07T17:46:54.078Z,53.20
2023-08-07T17:49:21.225Z,49.30
2023-08-07T17:51:48.776Z,57.30
2023-08-07T17:54:24.028Z,50.80
2023-08-07T17:56:57.919Z,49.70
2023-08-07T17:59:30.250Z,45.30
2023-08-07T18:02:05.474Z,51.40
2023-08-07T18:04:33.105Z,48.10
2023-08-07T18:07:00.599Z,45.50
2023-08-07T18:09:27.933Z,46.20
2023-08-07T18:11:57.926Z,42.70
2023-08-07T18:14:25.081Z,40.70
2023-08-07T18:16:52.789Z,35.90
2023-08-07T18:19:22.452Z,39.80
2023-08-07T18:21:49.775Z,37.70
2023-08-07T18:24:19.506Z,38.50
2023-08-07T18:26:46.459Z,32.60
2023-08-07T18:29:14.118Z,35.80
2023-08-07T18:31:41.178Z,34.70
2023-08-07T18:34:08.088Z,30.70
2023-08-07T18:36:38.143Z,33.50
2023-08-07T18:39:06.832Z,31.30
2023-08-07T18:41:34.360Z,34.80
2023-08-07T18:44:05.076Z,29.90
2023-08-07T18:46:32.215Z,29.80
2023-08-07T18:49:00.072Z,28.00
2023-08-07T18:51:27.231Z,26.40
2023-08-07T18:53:54.939Z,30.20
2023-08-07T18:56:22.436Z,27.50
2023-08-07T18:58:49.608Z,24.30
2023-08-07T19:01:16.722Z,23.80
2023-08-07T19:03:45.285Z,29.90
2023-08-07T19:06:12.447Z,23.50
2023-08-07T19:08:40.551Z,24.20
2023-08-07T19:11:10.306Z,26.30
2023-08-07T19:13:39.171Z,22.40
2023-08-07T19:16:06.545Z,24.30
2023-08-07T19:18:36.658Z,20.90
2023-08-07T19:21:04.386Z,19.90
2023-08-07T19:23:36.488Z,21.70
2023-08-07T19:26:04.682Z,21.70
2023-08-07T19:28:33.978Z,19.60
2023-08-07T19:31:06.227Z,21.10
2023-08-07T19:33:35.833Z,18.80
2023-08-07T19:36:07.073Z,20.40
2023-08-07T19:38:35.140Z,16.90
2023-08-07T19:41:02.174Z,16.80
2023-08-07T19:43:31.444Z,23.40
2023-08-07T19:46:00.622Z,18.70
2023-08-07T19:48:28.996Z,20.20
2023-08-07T19:50:58.016Z,18.70
2023-08-07T19:53:25.866Z,16.90
2023-08-07T19:55:54.860Z,17.10
2023-08-07T19:58:22.405Z,14.20
2023-08-07T20:00:49.794Z,16.80
2023-08-07T20:03:19.066Z,18.10
2023-08-07T20:05:46.223Z,15.90
2023-08-07T20:08:13.583Z,16.30
2023-08-07T20:10:46.373Z,15.90
2023-08-07T20:13:16.999Z,13.80
2023-08-07T20:15:44.142Z,16.40
2023-08-07T20:18:12.047Z,14.30
2023-08-07T20:20:40.540Z,15.00
2023-08-07T20:23:08.138Z,13.80
2023-08-07T20:25:35.081Z,18.30
2023-08-07T20:28:02.754Z,13.00
2023-08-07T20:30:30.548Z,15.00
2023-08-07T20:32:57.912Z,14.30
2023-08-07T20:35:25.040Z,15.60
2023-08-07T20:37:52.144Z,12.90
2023-08-07T20:40:19.212Z,14.40
2023-08-07T20:42:46.259Z,14.90
2023-08-07T20:45:13.412Z,14.20
2023-08-07T20:47:40.575Z,14.70
2023-08-07T20:50:08.331Z,16.50
2023-08-07T20:52:36.872Z,13.60
2023-08-07T20:55:04.678Z,15.30
2023-08-07T20:57:31.657Z,13.70
2023-08-07T20:59:58.751Z,13.90
2023-08-07T21:02:26.956Z,12.60
2023-08-07T21:04:54.216Z,14.10
2023-08-07T21:07:21.864Z,14.40
2023-08-07T21:09:49.107Z,13.50
2023-08-07T21:12:16.375Z,14.90
2023-08-07T21:14:43.834Z,12.10
2023-08-07T21:17:11.006Z,14.00
2023-08-07T21:19:38.942Z,17.40
2023-08-07T21:22:06.482Z,13.00
2023-08-07T21:24:33.517Z,20.20
2023-08-07T21:27:00.698Z,13.20
2023-08-07T21:29:27.743Z,18.20
2023-08-07T21:31:54.892Z,15.90
2023-08-07T21:34:22.250Z,14.40
2023-08-07T21:36:49.343Z,15.70
2023-08-07T21:39:16.620Z,17.00
2023-08-07T21:41:43.806Z,16.80
2023-08-07T21:44:13.722Z,16.60
2023-08-07T21:46:41.925Z,20.20
2023-08-07T21:49:09.248Z,24.70
2023-08-07T21:51:36.900Z,17.30
2023-08-07T21:54:03.932Z,14.80
2023-08-07T21:56:31.099Z,16.30
2023-08-07T21:58:58.483Z,15.30
2023-08-07T22:01:27.066Z,18.80
2023-08-07T22:03:55.154Z,14.30
2023-08-07T22:06:22.293Z,16.30
2023-08-07T22:08:49.436Z,18.90
2023-08-07T22:11:16.515Z,18.00
2023-08-07T22:13:48.334Z,20.00
2023-08-07T22:16:15.670Z,17.10
2023-08-07T22:18:44.606Z,16.10
2023-08-07T22:21:14.594Z,17.00
2023-08-07T22:23:45.692Z,17.30
2023-08-07T22:26:14.022Z,16.30
2023-08-07T22:28:45.486Z,18.00
2023-08-07T22:31:13.064Z,13.50
2023-08-07T22:33:40.288Z,16.80
2023-08-07T22:36:12.793Z,15.10
2023-08-07T22:38:40.659Z,11.50
2023-08-07T22:41:08.689Z,10.90
2023-08-07T22:43:35.819Z,14.20
2023-08-07T22:46:06.125Z,14.50
2023-08-07T22:48:33.506Z,13.00
2023-08-07T22:51:02.737Z,14.60
2023-08-07T22:53:31.389Z,11.60
2023-08-07T22:55:59.272Z,11.80
2023-08-07T22:58:26.318Z,14.20
2023-08-07T23:00:53.476Z,13.00
2023-08-07T23:03:20.928Z,15.30
2023-08-07T23:05:48.639Z,13.20
2023-08-07T23:08:15.839Z,13.70
2023-08-07T23:10:43.193Z,14.70
2023-08-07T23:13:10.337Z,11.10
2023-08-07T23:15:39.808Z,12.60
2023-08-07T23:18:07.016Z,14.50
2023-08-07T23:20:34.450Z,14.10
2023-08-07T23:23:01.648Z,11.70
2023-08-07T23:25:30.080Z,14.00
2023-08-07T23:27:57.145Z,17.20
2023-08-07T23:30:24.249Z,10.90
2023-08-07T23:32:51.466Z,12.40
2023-08-07T23:35:18.668Z,14.50
2023-08-07T23:37:46.341Z,11.00
2023-08-07T23:40:13.488Z,9.60
2023-08-07T23:42:40.538Z,9.60
2023-08-07T23:45:10.820Z,11.10
2023-08-07T23:47:38.189Z,12.20
2023-08-07T23:50:06.593Z,11.20
2023-08-07T23:52:34.283Z,11.70
2023-08-07T23:55:01.626Z,12.80
2023-08-07T23:57:28.697Z,11.80
2023-08-07T23:59:55.814Z,11.30
